Time;durP1;ratioP1;P1;durP2;ratioP2;P2;SDS_P1;SDS_P2;PMS_P1;PMS_P2;Temp;Humidity;BMP_temperature;BMP_pressure;BME280_temperature;BME280_humidity;BME280_pressure;Samples;Min_cycle;Max_cycle;Signal;HPM_P1;HPM_P2
2023/03/25 00:00:58;;;;;;;13.63;6.10;;;;;;;6.70;nan;-24004.00;5010672;28;20616;-74
2023/03/25 00:03:29;;;;;;;9.73;5.47;;;;;;;7.10;nan;-24015.22;5011732;28;20177;-74
2023/03/25 00:05:56;;;;;;;12.40;5.83;;;;;;;6.91;nan;-24009.97;5011113;28;20188;-75
2023/03/25 00:08:23;;;;;;;8.77;5.43;;;;;;;7.15;nan;-24016.50;5010543;28;20647;-75
2023/03/25 00:11:00;;;;;;;9.13;5.13;;;;;;;6.74;nan;-24005.16;5027206;28;20184;-75
2023/03/25 00:13:26;;;;;;;10.73;5.23;;;;;;;6.81;nan;-24007.13;5003793;28;20673;-74
2023/03/25 00:15:56;;;;;;;12.13;5.27;;;;;;;7.12;nan;-24015.78;5007091;28;20192;-75
2023/03/25 00:18:24;;;;;;;9.93;6.07;;;;;;;6.76;nan;-24005.72;5011293;28;20199;-75
2023/03/25 00:20:50;;;;;;;8.47;5.80;;;;;;;6.90;nan;-24009.53;5027175;28;20594;-73
2023/03/25 00:23:18;;;;;;;22.67;6.33;;;;;;;6.81;nan;-24007.00;5011633;28;20188;-74
2023/03/25 00:25:43;;;;;;;8.53;5.00;;;;;;;6.95;nan;-24011.09;5011592;28;20176;-75
2023/03/25 00:28:10;;;;;;;10.20;5.67;;;;;;;6.57;nan;-24000.47;5026829;28;20172;-74
2023/03/25 00:30:39;;;;;;;11.30;6.63;;;;;;;6.90;nan;-24009.53;5010020;28;20168;-76
2023/03/25 00:33:05;;;;;;;9.37;5.70;;;;;;;6.50;nan;-23998.47;5009752;28;20191;-75
2023/03/25 00:35:31;;;;;;;10.30;5.57;;;;;;;6.80;nan;-24006.72;5011520;28;20670;-75
2023/03/25 00:38:00;;;;;;;11.67;5.47;;;;;;;6.89;nan;-24009.41;5011583;28;20358;-75
2023/03/25 00:40:27;;;;;;;9.13;5.00;;;;;;;6.99;nan;-24012.09;5011310;28;20556;-75
2023/03/25 00:42:53;;;;;;;9.93;5.83;;;;;;;6.97;nan;-24011.53;5011224;28;20581;-76
2023/03/25 00:45:19;;;;;;;9.90;5.10;;;;;;;6.87;nan;-24008.69;5011169;28;20208;-75
2023/03/25 00:47:45;;;;;;;11.97;6.33;;;;;;;6.80;nan;-24006.84;5011764;28;20644;-75
2023/03/25 00:50:10;;;;;;;17.20;4.83;;;;;;;6.71;nan;-24004.16;5011436;28;20238;-75
2023/03/25 00:52:36;;;;;;;10.00;5.73;;;;;;;6.63;nan;-24002.03;5012194;28;20238;-74
2023/03/25 00:55:01;;;;;;;11.73;6.43;;;;;;;6.79;nan;-24006.44;5011549;28;20184;-76
2023/03/25 00:57:27;;;;;;;7.67;5.13;;;;;;;6.75;nan;-24005.28;5011373;28;20282;-74
2023/03/25 00:59:52;;;;;;;12.90;6.67;;;;;;;6.65;nan;-24002.72;5026690;28;20263;-74
2023/03/25 01:02:20;;;;;;;14.53;6.23;;;;;;;6.68;nan;-24003.44;5026236;28;20184;-75
2023/03/25 01:04:48;;;;;;;9.83;6.60;;;;;;;6.78;nan;-24006.13;5011256;28;20691;-75
2023/03/25 01:07:14;;;;;;;9.17;5.47;;;;;;;6.47;nan;-23997.63;5011148;28;20274;-75
2023/03/25 01:09:40;;;;;;;11.93;6.33;;;;;;;6.53;nan;-23999.31;5004811;28;20188;-75
2023/03/25 01:12:06;;;;;;;10.03;4.87;;;;;;;6.82;nan;-24007.28;5011311;28;20262;-75
2023/03/25 01:14:32;;;;;;;21.03;6.67;;;;;;;6.66;nan;-24003.00;5009510;28;20180;-75
2023/03/25 01:16:58;;;;;;;16.17;6.57;;;;;;;6.89;nan;-24009.25;5012084;28;20218;-75
2023/03/25 01:19:24;;;;;;;9.80;5.60;;;;;;;6.83;nan;-24007.56;5014888;28;20204;-74
2023/03/25 01:21:50;;;;;;;13.47;6.80;;;;;;;6.68;nan;-24003.31;5013663;28;20188;-74
2023/03/25 01:24:15;;;;;;;11.27;6.57;;;;;;;6.46;nan;-23997.34;5014885;28;20237;-74
2023/03/25 01:26:42;;;;;;;8.83;5.97;;;;;;;6.52;nan;-23998.91;5014502;28;20184;-75
2023/03/25 01:29:09;;;;;;;13.37;6.43;;;;;;;6.48;nan;-23997.91;5013135;28;20191;-74
2023/03/25 01:31:34;;;;;;;10.17;6.43;;;;;;;6.63;nan;-24002.03;5014445;28;20176;-75
2023/03/25 01:34:00;;;;;;;10.23;5.30;;;;;;;6.57;nan;-24000.47;5013332;28;20184;-75
2023/03/25 01:36:28;;;;;;;9.80;5.83;;;;;;;6.48;nan;-23997.75;5013155;28;20286;-75
2023/03/25 01:38:54;;;;;;;13.17;5.30;;;;;;;6.46;nan;-23997.19;5014423;28;20223;-75
2023/03/25 01:41:20;;;;;;;10.20;6.40;;;;;;;6.21;nan;-23990.38;5013063;28;20269;-75
2023/03/25 01:44:04;;;;;;;12.87;6.70;;;;;;;6.57;nan;-24000.31;5012157;28;20243;-75
2023/03/25 01:46:29;;;;;;;9.60;5.20;;;;;;;6.13;nan;-23988.13;5027150;28;20180;-74
2023/03/25 01:48:56;;;;;;;7.50;5.50;;;;;;;6.26;nan;-23991.66;5015083;28;20321;-75
2023/03/25 01:51:28;;;;;;;19.57;6.70;;;;;;;5.82;nan;-23979.16;5013211;28;20535;-74
2023/03/25 01:53:54;;;;;;;10.50;6.57;;;;;;;6.64;nan;-24002.44;5014281;28;20176;-75
2023/03/25 01:56:25;;;;;;;10.37;6.07;;;;;;;6.39;nan;-23995.34;5013730;28;20195;-74
2023/03/25 01:58:52;;;;;;;11.10;6.77;;;;;;;6.24;nan;-23991.09;5014728;28;20243;-74
2023/03/25 02:01:20;;;;;;;13.47;5.57;;;;;;;6.29;nan;-23992.38;5012763;28;20705;-74
2023/03/25 02:03:49;;;;;;;11.57;6.47;;;;;;;6.07;nan;-23986.41;5013520;28;20184;-75
2023/03/25 02:06:30;;;;;;;12.40;7.47;;;;;;;5.77;nan;-23978.03;5013772;28;20206;-74
2023/03/25 02:09:00;;;;;;;10.63;5.53;;;;;;;5.75;nan;-23977.31;5012402;28;20650;-74
2023/03/25 02:11:28;;;;;;;9.63;6.50;;;;;;;5.73;nan;-23976.88;5012242;28;20177;-75
2023/03/25 02:13:56;;;;;;;11.80;5.67;;;;;;;6.00;nan;-23984.41;5013328;28;20168;-75
2023/03/25 02:17:00;;;;;;;11.37;5.77;;;;;;;6.18;nan;-23989.38;5013136;28;20279;-74
2023/03/25 02:19:43;;;;;;;10.57;5.73;;;;;;;5.82;nan;-23979.16;5013370;28;20298;-74
2023/03/25 02:22:42;;;;;;;14.87;6.30;;;;;;;6.07;nan;-23986.41;5013317;28;20175;-74
2023/03/25 02:25:26;;;;;;;9.07;5.47;;;;;;;6.16;nan;-23988.97;5013471;28;20172;-75
2023/03/25 02:28:24;;;;;;;14.50;6.33;;;;;;;6.16;nan;-23988.97;5011339;28;20559;-74
2023/03/25 02:30:53;;;;;;;9.13;6.07;;;;;;;6.14;nan;-23988.41;5011864;28;20246;-74
2023/03/25 02:33:30;;;;;;;6.90;4.97;;;;;;;6.29;nan;-23992.38;5012048;28;20179;-75
2023/03/25 02:36:33;;;;;;;12.30;6.57;;;;;;;6.21;nan;-23990.25;5013287;28;20187;-75
2023/03/25 02:39:18;;;;;;;8.03;5.27;;;;;;;6.17;nan;-23989.25;5013008;28;20199;-76
2023/03/25 02:41:56;;;;;;;7.17;5.07;;;;;;;6.07;nan;-23986.25;5013475;28;20165;-75
2023/03/25 02:44:46;;;;;;;9.20;5.30;;;;;;;6.19;nan;-23989.69;5013692;28;20168;-75
2023/03/25 02:47:17;;;;;;;7.73;4.93;;;;;;;5.62;nan;-23973.63;5012617;28;20176;-75
2023/03/25 02:50:23;;;;;;;11.20;5.23;;;;;;;5.96;nan;-23983.28;5012013;28;20648;-75
2023/03/25 02:52:54;;;;;;;11.93;5.70;;;;;;;5.46;nan;-23969.06;5013735;28;20259;-75
2023/03/25 02:55:24;;;;;;;10.23;5.07;;;;;;;5.76;nan;-23977.59;5013461;28;20692;-74
2023/03/25 02:57:53;;;;;;;7.40;4.40;;;;;;;5.47;nan;-23969.34;5013076;28;20337;-74
2023/03/25 03:00:23;;;;;;;8.57;5.00;;;;;;;5.66;nan;-23974.75;5011645;28;20184;-74
2023/03/25 03:03:00;;;;;;;9.03;4.67;;;;;;;5.69;nan;-23975.75;5012780;28;20169;-74
2023/03/25 03:05:31;;;;;;;11.20;5.63;;;;;;;5.85;nan;-23980.16;5012802;28;20183;-74
2023/03/25 03:08:21;;;;;;;12.03;5.67;;;;;;;5.89;nan;-23981.16;5011783;28;20215;-74
2023/03/25 03:11:24;;;;;;;10.87;5.50;;;;;;;5.94;nan;-23982.72;5012838;28;20179;-76
2023/03/25 03:13:59;;;;;;;7.47;4.50;;;;;;;5.58;nan;-23972.63;5016129;28;20180;-75
2023/03/25 03:16:38;;;;;;;10.53;5.80;;;;;;;5.62;nan;-23973.75;5022324;28;20167;-73
2023/03/25 03:19:22;;;;;;;7.03;4.33;;;;;;;5.89;nan;-23981.16;5022396;28;20270;-73
2023/03/25 03:22:13;;;;;;;7.17;5.50;;;;;;;5.89;nan;-23981.16;5022713;28;20191;-75
2023/03/25 03:24:43;;;;;;;10.97;5.20;;;;;;;5.51;nan;-23970.63;5014041;28;20167;-75
2023/03/25 03:27:27;;;;;;;10.23;5.20;;;;;;;5.35;nan;-23966.09;5012964;28;20234;-73
2023/03/25 03:30:11;;;;;;;11.03;5.50;;;;;;;5.79;nan;-23978.44;5011608;28;20298;-75
2023/03/25 03:32:47;;;;;;;10.87;6.47;;;;;;;5.65;nan;-23974.47;5012485;28;20176;-74
2023/03/25 03:35:19;;;;;;;10.90;6.47;;;;;;;5.56;nan;-23971.91;5012554;28;20650;-75
2023/03/25 03:37:53;;;;;;;6.93;5.17;;;;;;;5.14;nan;-23960.25;5012029;28;20613;-76
2023/03/25 03:40:22;;;;;;;7.20;4.10;;;;;;;5.40;nan;-23967.50;5011236;28;20259;-75
2023/03/25 03:42:55;;;;;;;6.50;4.47;;;;;;;5.43;nan;-23968.34;5012450;28;20243;-73
2023/03/25 03:45:32;;;;;;;7.50;4.37;;;;;;;5.47;nan;-23969.50;5012254;28;20255;-75
2023/03/25 03:48:02;;;;;;;7.00;4.73;;;;;;;5.30;nan;-23964.66;5012601;28;20563;-74
2023/03/25 03:50:38;;;;;;;9.43;5.30;;;;;;;5.33;nan;-23965.66;5011020;28;20315;-75
2023/03/25 03:53:13;;;;;;;9.43;4.93;;;;;;;5.77;nan;-23977.88;5011783;28;20294;-75
2023/03/25 03:56:06;;;;;;;8.43;4.90;;;;;;;5.85;nan;-23980.16;5012281;28;20175;-75
2023/03/25 03:58:37;;;;;;;7.63;5.53;;;;;;;5.81;nan;-23979.00;5019126;28;20265;-75
2023/03/25 04:01:29;;;;;;;8.40;4.73;;;;;;;5.75;nan;-23977.31;5012041;28;20176;-74
2023/03/25 04:04:06;;;;;;;8.13;4.47;;;;;;;5.88;nan;-23981.00;5011982;28;20176;-74
2023/03/25 04:06:37;;;;;;;8.20;5.20;;;;;;;5.89;nan;-23981.28;5012720;28;20186;-74
2023/03/25 04:09:27;;;;;;;13.27;5.60;;;;;;;5.84;nan;-23979.72;5010777;28;20591;-75
2023/03/25 04:11:58;;;;;;;6.60;4.80;;;;;;;5.71;nan;-23976.31;5012087;28;20160;-75
2023/03/25 04:14:24;;;;;;;8.00;5.10;;;;;;;5.65;nan;-23974.59;5010501;28;20670;-74
2023/03/25 04:16:52;;;;;;;7.47;4.67;;;;;;;5.67;nan;-23975.19;5012559;28;20183;-75
2023/03/25 04:19:18;;;;;;;9.30;5.37;;;;;;;5.75;nan;-23977.31;5011517;28;20298;-75
2023/03/25 04:21:47;;;;;;;6.43;4.90;;;;;;;5.64;nan;-23974.19;5010449;28;20176;-75
2023/03/25 04:24:15;;;;;;;7.10;5.47;;;;;;;5.71;nan;-23976.31;5010112;28;20187;-75
2023/03/25 04:26:42;;;;;;;9.63;4.70;;;;;;;5.72;nan;-23976.47;5012095;28;20170;-74
2023/03/25 04:29:08;;;;;;;9.83;4.93;;;;;;;5.69;nan;-23975.59;5011279;28;20164;-74
2023/03/25 04:31:34;;;;;;;6.67;4.33;;;;;;;5.40;nan;-23967.50;5010018;28;20182;-75
2023/03/25 04:34:01;;;;;;;9.87;5.47;;;;;;;5.16;nan;-23960.81;5021747;28;20678;-74
2023/03/25 04:36:32;;;;;;;8.43;4.70;;;;;;;5.67;nan;-23975.03;5011369;28;20180;-75
2023/03/25 04:38:58;;;;;;;10.20;5.57;;;;;;;5.91;nan;-23981.72;5009876;28;20222;-77
2023/03/25 04:41:24;;;;;;;6.47;5.03;;;;;;;5.94;nan;-23982.56;5043190;28;20295;-75
2023/03/25 04:43:50;;;;;;;10.87;5.00;;;;;;;6.01;nan;-23984.69;5011355;28;20263;-75
2023/03/25 04:46:16;;;;;;;11.03;5.40;;;;;;;6.00;nan;-23984.28;5010054;28;20190;-74
2023/03/25 04:48:44;;;;;;;6.07;5.00;;;;;;;5.94;nan;-23982.56;5011479;28;20264;-76
2023/03/25 04:51:14;;;;;;;7.93;4.77;;;;;;;6.25;nan;-23991.22;5012389;28;20168;-76
2023/03/25 04:53:40;;;;;;;8.77;4.97;;;;;;;6.26;nan;-23991.53;5010019;28;20180;-74
2023/03/25 04:56:14;;;;;;;10.73;6.13;;;;;;;6.36;nan;-23994.50;5010440;28;20261;-75
2023/03/25 04:58:41;;;;;;;24.10;5.03;;;;;;;6.11;nan;-23987.53;5028786;28;20306;-76
2023/03/25 05:01:10;;;;;;;10.97;5.47;;;;;;;6.39;nan;-23995.34;5003275;28;20173;-74
2023/03/25 05:03:38;;;;;;;8.87;4.90;;;;;;;6.61;nan;-24001.47;5000474;28;20187;-76
2023/03/25 05:06:04;;;;;;;7.40;4.77;;;;;;;6.39;nan;-23995.34;5001004;28;20180;-76
2023/03/25 05:08:30;;;;;;;9.60;5.13;;;;;;;6.82;nan;-24007.28;5000825;28;20577;-75
2023/03/25 05:10:55;;;;;;;10.27;4.60;;;;;;;6.90;nan;-24009.53;5000174;28;20239;-75
2023/03/25 05:13:21;;;;;;;16.37;4.67;;;;;;;6.63;nan;-24002.03;4997920;28;20250;-75
2023/03/25 05:15:46;;;;;;;11.57;5.30;;;;;;;7.09;nan;-24015.06;5010085;28;20230;-76
2023/03/25 05:18:14;;;;;;;9.97;5.10;;;;;;;7.22;nan;-24018.63;5005017;28;20212;-74
2023/03/25 05:20:42;;;;;;;7.77;4.70;;;;;;;7.32;nan;-24021.31;5002013;28;20640;-76
2023/03/25 05:23:11;;;;;;;10.13;4.73;;;;;;;7.31;nan;-24021.03;4999859;28;20196;-76
2023/03/25 05:25:40;;;;;;;10.87;5.50;;;;;;;7.38;nan;-24023.00;5009920;28;20177;-75
2023/03/25 05:28:08;;;;;;;8.20;4.50;;;;;;;7.66;nan;-24030.81;5014155;28;20182;-76
2023/03/25 05:30:41;;;;;;;6.27;4.10;;;;;;;7.56;nan;-24028.13;5013092;28;20568;-77
2023/03/25 05:33:12;;;;;;;9.20;4.37;;;;;;;7.16;nan;-24016.91;5011066;28;20655;-75
2023/03/25 05:35:38;;;;;;;7.63;4.63;;;;;;;7.59;nan;-24028.97;5007967;28;20290;-76
2023/03/25 05:38:04;;;;;;;6.00;3.93;;;;;;;7.75;nan;-24033.50;5010599;28;20207;-76
2023/03/25 05:40:31;;;;;;;6.73;4.00;;;;;;;7.60;nan;-24029.25;5029529;28;20214;-75
2023/03/25 05:42:57;;;;;;;9.80;4.10;;;;;;;7.89;nan;-24037.47;5012310;28;20187;-75
2023/03/25 05:45:22;;;;;;;9.37;5.30;;;;;;;7.79;nan;-24034.63;5022819;28;20195;-75
2023/03/25 05:47:48;;;;;;;6.63;4.10;;;;;;;8.14;nan;-24044.41;5001601;28;20199;-75
2023/03/25 05:50:14;;;;;;;8.37;5.33;;;;;;;8.34;nan;-24049.94;5008329;28;20655;-75
2023/03/25 05:52:43;;;;;;;7.93;4.40;;;;;;;8.75;nan;-24061.53;5006131;28;20206;-76
2023/03/25 05:55:15;;;;;;;8.57;4.97;;;;;;;8.91;nan;-24065.94;5007517;28;20180;-76
2023/03/25 05:57:41;;;;;;;10.00;5.50;;;;;;;8.80;nan;-24062.81;5003446;28;20227;-76
2023/03/25 06:00:07;;;;;;;8.57;5.17;;;;;;;9.02;nan;-24069.03;5005748;28;20191;-72
2023/03/25 06:02:34;;;;;;;7.80;5.30;;;;;;;9.07;nan;-24070.31;5012290;28;20176;-73
2023/03/25 06:05:00;;;;;;;6.63;4.27;;;;;;;9.15;nan;-24072.56;5007036;28;20195;-73
2023/03/25 06:07:25;;;;;;;9.17;4.90;;;;;;;9.27;nan;-24076.09;5007741;28;20276;-77
2023/03/25 06:09:52;;;;;;;5.87;4.07;;;;;;;9.64;nan;-24086.28;5010633;28;20186;-73
2023/03/25 06:12:20;;;;;;;7.40;4.90;;;;;;;9.55;nan;-24083.88;5023212;28;20672;-73
2023/03/25 06:14:46;;;;;;;6.97;4.73;;;;;;;10.08;nan;-24098.56;5016757;28;20191;-73
2023/03/25 06:17:13;;;;;;;7.70;4.77;;;;;;;10.08;nan;-24098.56;5005868;28;20331;-74
2023/03/25 06:19:39;;;;;;;8.20;4.90;;;;;;;10.11;nan;-24099.56;5026965;28;20207;-73
2023/03/25 06:22:09;;;;;;;6.73;4.60;;;;;;;10.47;nan;-24109.44;5010894;28;20195;-74
2023/03/25 06:24:39;;;;;;;8.35;5.40;;;;;;;10.46;nan;-24109.16;5009451;28;20199;-75
2023/03/25 06:27:06;;;;;;;9.60;4.65;;;;;;;10.87;nan;-24120.72;5017588;28;20287;-77
2023/03/25 06:29:33;;;;;;;11.15;4.85;;;;;;;11.08;nan;-24126.66;5009178;28;20226;-73
2023/03/25 06:31:59;;;;;;;18.67;5.78;;;;;;;11.23;nan;-24130.59;5003751;28;20594;-73
2023/03/25 06:34:25;;;;;;;7.72;4.85;;;;;;;11.06;nan;-24125.94;4999308;28;20177;-73
2023/03/25 06:36:52;;;;;;;7.68;4.95;;;;;;;11.46;nan;-24137.22;5006287;28;20188;-73
2023/03/25 06:39:19;;;;;;;7.20;4.60;;;;;;;11.50;nan;-24138.34;5008114;28;20207;-74
2023/03/25 06:41:44;;;;;;;9.20;5.53;;;;;;;11.91;nan;-24149.63;5011828;28;20222;-73
2023/03/25 06:44:10;;;;;;;9.00;5.55;;;;;;;11.97;nan;-24151.31;5018882;28;20219;-73
2023/03/25 06:46:35;;;;;;;12.55;5.35;;;;;;;11.99;nan;-24151.88;5010109;28;20175;-79
2023/03/25 06:49:01;;;;;;;9.75;4.93;;;;;;;12.30;nan;-24160.47;5023736;28;20211;-77
2023/03/25 06:51:26;;;;;;;9.77;5.05;;;;;;;12.28;nan;-24160.03;5010973;28;20198;-78
2023/03/25 06:53:52;;;;;;;13.52;5.95;;;;;;;12.45;nan;-24164.53;5009368;28;20203;-76
2023/03/25 06:56:17;;;;;;;9.57;4.88;;;;;;;12.43;nan;-24164.13;5011205;28;20176;-77
2023/03/25 06:58:43;;;;;;;8.45;5.18;;;;;;;12.80;nan;-24174.53;5044138;28;20231;-79
2023/03/25 07:01:08;;;;;;;10.45;4.57;;;;;;;12.82;nan;-24175.09;5038086;28;20283;-77
2023/03/25 07:03:35;;;;;;;8.98;5.15;;;;;;;13.11;nan;-24182.97;5006677;28;20564;-78
2023/03/25 07:06:00;;;;;;;7.38;4.40;;;;;;;13.34;nan;-24189.44;5013156;28;20179;-77
2023/03/25 07:08:26;;;;;;;7.15;4.22;;;;;;;;;;5004314;28;20188;-77
2023/03/25 07:10:51;;;;;;;7.38;4.35;;;;;;;13.57;nan;-24195.88;5000061;28;20191;-77
2023/03/25 07:13:16;;;;;;;10.13;4.97;;;;;;;13.49;nan;-24193.50;4997297;28;20615;-80
2023/03/25 07:15:42;;;;;;;7.78;4.50;;;;;;;13.80;nan;-24202.19;4998410;28;20188;-79
2023/03/25 07:18:07;;;;;;;6.85;4.45;;;;;;;13.80;nan;-24202.06;5010278;28;20208;-79
2023/03/25 07:20:33;;;;;;;9.00;4.90;;;;;;;13.79;nan;-24201.91;4997199;28;20640;-76
2023/03/25 07:22:58;;;;;;;8.20;4.70;;;;;;;14.16;nan;-24212.31;5004377;28;20263;-80
2023/03/25 07:25:24;;;;;;;6.38;4.22;;;;;;;14.25;nan;-24214.69;4998618;28;20188;-73
2023/03/25 07:27:49;;;;;;;16.05;4.65;;;;;;;14.38;nan;-24218.34;5006293;28;20541;-76
2023/03/25 07:30:15;;;;;;;7.57;4.32;;;;;;;14.38;nan;-24218.22;5000567;28;20176;-69
2023/03/25 07:32:43;;;;;;;9.38;4.75;;;;;;;14.80;nan;-24229.97;4998296;28;20530;-70
2023/03/25 07:35:08;;;;;;;8.25;3.97;;;;;;;14.34;nan;-24217.06;4999577;28;20184;-69
2023/03/25 07:37:34;;;;;;;9.65;4.78;;;;;;;14.07;nan;-24209.78;5020744;28;20220;-71
2023/03/25 07:39:59;;;;;;;8.13;4.57;;;;;;;14.38;nan;-24218.22;5003686;28;20177;-71
2023/03/25 07:42:25;;;;;;;7.47;5.05;;;;;;;14.72;nan;-24227.75;4999244;28;20173;-71
2023/03/25 07:44:50;;;;;;;8.82;4.53;;;;;;;14.64;nan;-24225.34;5003820;28;20192;-72
2023/03/25 07:47:16;;;;;;;7.47;4.53;;;;;;;14.27;nan;-24215.13;5001686;28;20267;-71
2023/03/25 07:49:42;;;;;;;8.55;4.47;;;;;;;14.35;nan;-24217.34;5004800;28;20238;-69
2023/03/25 07:52:08;;;;;;;7.30;4.72;;;;;;;13.92;nan;-24205.44;5002754;28;20180;-70
2023/03/25 07:54:34;;;;;;;7.55;4.32;;;;;;;14.23;nan;-24214.00;4998368;28;20295;-72
2023/03/25 07:57:00;;;;;;;9.38;4.10;;;;;;;14.83;nan;-24230.69;5019255;28;20180;-69
2023/03/25 07:59:25;;;;;;;9.15;5.05;;;;;;;14.83;nan;-24230.81;4997396;28;20215;-75
2023/03/25 08:01:51;;;;;;;6.88;3.70;;;;;;;15.09;nan;-24237.81;4999871;28;20188;-71
2023/03/25 08:04:16;;;;;;;5.55;3.65;;;;;;;14.37;nan;-24218.06;5005340;28;20259;-71
2023/03/25 08:06:42;;;;;;;5.93;3.75;;;;;;;14.69;nan;-24226.91;4997764;28;20211;-71
2023/03/25 08:09:07;;;;;;;8.70;4.10;;;;;;;15.12;nan;-24238.81;4999116;28;20211;-70
2023/03/25 08:11:33;;;;;;;8.57;4.13;;;;;;;15.35;nan;-24245.25;5000307;28;20173;-70
2023/03/25 08:13:58;;;;;;;7.95;4.07;;;;;;;15.46;nan;-24248.19;5003244;28;20192;-72
2023/03/25 08:16:24;;;;;;;5.82;3.67;;;;;;;15.93;nan;-24261.06;5000809;28;20670;-70
2023/03/25 08:18:51;;;;;;;6.80;3.88;;;;;;;16.03;nan;-24263.88;5002286;28;20208;-72
2023/03/25 08:21:23;;;;;;;6.32;3.97;;;;;;;16.05;nan;-24264.44;5000238;28;20191;-73
2023/03/25 08:23:50;;;;;;;8.68;4.30;;;;;;;16.67;nan;-24281.78;4998582;28;20609;-72
2023/03/25 08:26:16;;;;;;;9.60;4.18;;;;;;;16.46;nan;-24275.88;5023215;28;20177;-73
2023/03/25 08:28:41;;;;;;;7.05;4.10;;;;;;;16.47;nan;-24276.03;5013607;28;20191;-74
2023/03/25 08:31:08;;;;;;;10.70;4.50;;;;;;;16.66;nan;-24281.50;5029533;28;20643;-75
2023/03/25 08:33:38;;;;;;;7.75;4.13;;;;;;;16.71;nan;-24282.88;5017230;28;20246;-70
2023/03/25 08:36:18;;;;;;;13.55;4.00;;;;;;;16.58;nan;-24279.13;5013151;28;20670;-70
2023/03/25 08:38:47;;;;;;;7.10;3.80;;;;;;;16.27;nan;-24270.72;5012129;28;20251;-71
2023/03/25 08:41:13;;;;;;;7.28;4.03;;;;;;;16.38;nan;-24273.50;5016621;28;20598;-71
2023/03/25 08:43:38;;;;;;;6.85;3.80;;;;;;;16.77;nan;-24284.56;5017707;28;20195;-69
2023/03/25 08:46:04;;;;;;;7.72;4.45;;;;;;;16.74;nan;-24283.59;5011151;28;20238;-72
2023/03/25 08:48:30;;;;;;;7.13;3.90;;;;;;;16.86;nan;-24286.78;5012048;28;20191;-70
2023/03/25 08:50:55;;;;;;;8.35;4.18;;;;;;;17.33;nan;-24299.91;5016685;28;20533;-71
2023/03/25 08:53:21;;;;;;;8.57;4.55;;;;;;;17.04;nan;-24291.81;5006921;28;20207;-70
2023/03/25 08:55:51;;;;;;;6.18;3.83;;;;;;;17.46;nan;-24303.41;5009669;28;20179;-70
2023/03/25 08:58:17;;;;;;;10.40;4.32;;;;;;;17.32;nan;-24299.63;5015314;28;20282;-69
2023/03/25 09:00:43;;;;;;;7.32;4.13;;;;;;;17.40;nan;-24301.72;5008103;28;20184;-70
2023/03/25 09:03:08;;;;;;;8.45;4.35;;;;;;;17.61;nan;-24307.59;5015226;28;20184;-72
2023/03/25 09:05:37;;;;;;;8.50;4.60;;;;;;;17.44;nan;-24303.00;5008520;28;20581;-72
2023/03/25 09:08:03;;;;;;;7.28;4.13;;;;;;;17.59;nan;-24307.19;5025630;28;20192;-75
2023/03/25 09:10:28;;;;;;;6.22;3.70;;;;;;;17.52;nan;-24305.09;5007332;28;20191;-71
2023/03/25 09:12:54;;;;;;;11.75;4.50;;;;;;;17.59;nan;-24307.19;5005711;28;20548;-72
2023/03/25 09:15:20;;;;;;;9.90;4.88;;;;;;;17.64;nan;-24308.56;5011768;28;20194;-73
2023/03/25 09:17:45;;;;;;;9.35;4.47;;;;;;;17.69;nan;-24309.69;5017408;28;20617;-74
2023/03/25 09:20:11;;;;;;;6.47;3.75;;;;;;;18.01;nan;-24318.63;5015116;28;20190;-72
2023/03/25 09:22:37;;;;;;;6.82;4.43;;;;;;;18.16;nan;-24322.66;5007832;28;20184;-74
2023/03/25 09:25:05;;;;;;;6.60;4.32;;;;;;;18.12;nan;-24321.69;5015437;28;20222;-72
2023/03/25 09:27:31;;;;;;;7.53;4.30;;;;;;;18.57;nan;-24334.09;5012943;28;20611;-72
2023/03/25 09:29:56;;;;;;;9.57;4.50;;;;;;;18.82;nan;-24341.03;5005327;28;20224;-72
2023/03/25 09:32:22;;;;;;;9.52;4.05;;;;;;;19.19;nan;-24351.22;5007590;28;20195;-74
2023/03/25 09:34:48;;;;;;;8.10;4.53;;;;;;;19.25;nan;-24352.88;5013818;28;20306;-72
2023/03/25 09:37:13;;;;;;;7.80;4.47;;;;;;;19.47;nan;-24358.72;5008937;28;20180;-71
2023/03/25 09:39:39;;;;;;;7.63;3.60;;;;;;;19.58;nan;-24361.91;5004961;28;20206;-75
2023/03/25 09:42:25;;;;;;;8.18;4.20;;;;;;;18.93;nan;-24343.97;5010934;28;20187;-74
2023/03/25 09:45:21;;;;;;;8.52;4.82;;;;;;;19.24;nan;-24352.47;5007641;28;20652;-75
2023/03/25 09:47:56;;;;;;;7.15;4.50;;;;;;;19.20;nan;-24351.34;5008062;28;20180;-74
2023/03/25 09:50:23;;;;;;;10.85;4.65;;;;;;;18.93;nan;-24343.97;5013191;28;20241;-76
2023/03/25 09:53:21;;;;;;;11.77;4.05;;;;;;;18.93;nan;-24344.13;5028974;28;20578;-71
2023/03/25 09:55:47;;;;;;;6.82;4.03;;;;;;;19.74;nan;-24366.38;5007696;28;20241;-71
2023/03/25 09:58:40;;;;;;;11.02;4.40;;;;;;;19.87;nan;-24369.72;5004874;28;20329;-74
2023/03/25 10:01:21;;;;;;;9.38;4.55;;;;;;;20.09;nan;-24375.81;5005995;28;20184;-71
2023/03/25 10:03:58;;;;;;;7.18;4.18;;;;;;;20.03;nan;-24374.28;5001926;28;20181;-72
2023/03/25 10:06:26;;;;;;;12.93;5.18;;;;;;;20.12;nan;-24376.78;5009808;28;20179;-72
2023/03/25 10:08:51;;;;;;;8.07;4.68;;;;;;;;;;5005275;28;20243;-75
2023/03/25 10:12:06;;;;;;;8.27;4.30;;;;;;;20.89;nan;-24397.91;5004941;28;20183;-73
2023/03/25 10:14:56;;;;;;;7.50;4.20;;;;;;;21.37;nan;-24411.06;5041040;28;20662;-73
2023/03/25 10:17:37;;;;;;;8.48;4.45;;;;;;;21.13;nan;-24404.41;4973992;28;20212;-71
2023/03/25 10:20:17;;;;;;;8.43;4.97;;;;;;;20.48;nan;-24386.53;5013703;28;20191;-71
2023/03/25 10:23:04;;;;;;;8.95;4.50;;;;;;;20.32;nan;-24382.22;5001320;28;20652;-73
2023/03/25 10:25:34;;;;;;;12.38;4.88;;;;;;;20.14;nan;-24377.34;5013317;28;20183;-73
2023/03/25 10:28:00;;;;;;;10.65;4.70;;;;;;;20.69;nan;-24392.34;5005712;28;20231;-72
2023/03/25 10:30:44;;;;;;;10.85;5.07;;;;;;;20.58;nan;-24389.44;5003049;28;20203;-74
2023/03/25 10:33:20;;;;;;;7.63;4.45;;;;;;;20.21;nan;-24379.28;5005803;28;20667;-74
2023/03/25 10:35:47;;;;;;;5.82;3.78;;;;;;;20.37;nan;-24383.47;5009377;28;20211;-75
2023/03/25 10:38:23;;;;;;;6.60;4.00;;;;;;;20.55;nan;-24388.47;5011634;28;20204;-71
2023/03/25 10:41:10;;;;;;;7.43;4.32;;;;;;;21.02;nan;-24401.50;5012958;28;20253;-71
2023/03/25 10:43:40;;;;;;;8.77;3.90;;;;;;;20.84;nan;-24396.50;5008015;28;20176;-69
2023/03/25 10:46:28;;;;;;;7.35;4.30;;;;;;;21.22;nan;-24406.78;5007709;28;20184;-71
2023/03/25 10:48:53;;;;;;;7.88;4.38;;;;;;;21.19;nan;-24405.94;5006645;28;20184;-72
2023/03/25 10:51:25;;;;;;;6.22;3.55;;;;;;;21.66;nan;-24418.81;5013843;28;20196;-74
2023/03/25 10:53:52;;;;;;;8.35;4.15;;;;;;;22.00;nan;-24428.25;5012995;28;20179;-71
2023/03/25 10:56:41;;;;;;;8.35;3.85;;;;;;;22.14;nan;-24432.13;5011306;28;20686;-70
2023/03/25 10:59:21;;;;;;;7.15;3.92;;;;;;;22.61;nan;-24445.00;5009433;28;20286;-72
2023/03/25 11:01:47;;;;;;;6.85;3.90;;;;;;;22.51;nan;-24442.09;5009901;28;20202;-74
2023/03/25 11:04:17;;;;;;;6.22;3.80;;;;;;;22.69;nan;-24447.06;5004841;28;20199;-71
2023/03/25 11:06:45;;;;;;;6.07;3.90;;;;;;;22.84;nan;-24451.34;5012341;28;20659;-73
2023/03/25 11:09:29;;;;;;;6.82;4.35;;;;;;;22.60;nan;-24444.56;5006518;28;20651;-74
2023/03/25 11:11:58;;;;;;;6.25;3.78;;;;;;;22.80;nan;-24450.09;5003448;28;20206;-72
2023/03/25 11:14:26;;;;;;;8.27;4.35;;;;;;;22.58;nan;-24444.16;5003991;28;20263;-71
2023/03/25 11:16:59;;;;;;;6.45;3.80;;;;;;;22.75;nan;-24448.88;5005731;28;20188;-74
2023/03/25 11:19:27;;;;;;;6.80;3.92;;;;;;;22.82;nan;-24450.81;5002745;28;20326;-72
2023/03/25 11:21:58;;;;;;;5.57;3.40;;;;;;;22.90;nan;-24452.88;5010395;28;20261;-73
2023/03/25 11:24:32;;;;;;;8.70;4.15;;;;;;;23.03;nan;-24456.47;5009138;28;20202;-73
2023/03/25 11:27:00;;;;;;;7.18;3.72;;;;;;;23.23;nan;-24461.84;5002512;28;20326;-74
2023/03/25 11:29:26;;;;;;;5.68;3.67;;;;;;;23.26;nan;-24462.81;5007249;28;20227;-73
2023/03/25 11:32:07;;;;;;;10.50;3.72;;;;;;;23.55;nan;-24470.69;5005352;28;20199;-74
2023/03/25 11:34:40;;;;;;;6.38;3.25;;;;;;;23.49;nan;-24469.03;5004786;28;20685;-72
2023/03/25 11:37:21;;;;;;;6.35;3.20;;;;;;;23.37;nan;-24465.59;5005450;28;20196;-72
2023/03/25 11:39:54;;;;;;;5.18;3.65;;;;;;;23.33;nan;-24464.75;5011538;28;20207;-71
2023/03/25 11:42:39;;;;;;;6.80;3.72;;;;;;;23.39;nan;-24466.28;5007093;28;20669;-74
2023/03/25 11:45:05;;;;;;;9.70;3.67;;;;;;;23.27;nan;-24463.09;4999120;28;20263;-74
2023/03/25 11:47:36;;;;;;;5.72;3.47;;;;;;;23.26;nan;-24462.69;5007338;28;20187;-70
2023/03/25 11:50:05;;;;;;;5.47;3.70;;;;;;;23.49;nan;-24469.03;5008131;28;20241;-74
2023/03/25 11:52:43;;;;;;;5.07;3.60;;;;;;;23.72;nan;-24475.38;5002973;28;20188;-76
2023/03/25 11:55:17;;;;;;;5.32;3.47;;;;;;;23.69;nan;-24474.44;5018286;28;20278;-73
2023/03/25 11:57:45;;;;;;;5.55;3.38;;;;;;;23.62;nan;-24472.63;5001382;28;20322;-74
2023/03/25 12:00:32;;;;;;;5.97;3.67;;;;;;;23.80;nan;-24477.47;5004317;28;20255;-72